Time;durP1;ratioP1;P1;durP2;ratioP2;P2;SDS_P1;SDS_P2;PMS_P1;PMS_P2;Temp;Humidity;BMP_temperature;BMP_pressure;BME280_temperature;BME280_humidity;BME280_pressure;Samples;Min_cycle;Max_cycle;Signal;HPM_P1;HPM_P2
2022/04/10 00:00:09;;;;;;;0.80;0.50;;;3.80;99.90;;;;;;5011146;28;20392;-68
2022/04/10 00:02:35;;;;;;;7.50;0.80;;;3.80;99.90;;;;;;5011330;28;20444;-68
2022/04/10 00:05:01;;;;;;;0.40;0.20;;;3.80;99.90;;;;;;5010218;28;20432;-68
2022/04/10 00:07:27;;;;;;;0.40;0.20;;;3.80;99.90;;;;;;5011395;28;20412;-68
2022/04/10 00:09:52;;;;;;;0.40;0.20;;;3.80;99.90;;;;;;5016963;28;20387;-68
2022/04/10 00:12:18;;;;;;;0.40;0.20;;;3.70;99.90;;;;;;5030742;28;20883;-68
2022/04/10 00:14:45;;;;;;;0.40;0.20;;;3.70;99.90;;;;;;5029316;28;21029;-68
2022/04/10 00:17:11;;;;;;;0.40;0.20;;;3.70;99.90;;;;;;5029999;28;20379;-68
2022/04/10 00:19:38;;;;;;;0.40;0.20;;;3.70;99.90;;;;;;5030886;28;20390;-68
2022/04/10 00:22:04;;;;;;;0.40;0.20;;;3.60;99.90;;;;;;5030057;28;20387;-68
2022/04/10 00:24:30;;;;;;;0.40;0.20;;;3.50;99.90;;;;;;5030640;28;20744;-68
2022/04/10 00:26:55;;;;;;;0.40;0.20;;;3.50;99.90;;;;;;5031032;28;20386;-68
2022/04/10 00:29:21;;;;;;;0.40;0.20;;;3.50;99.90;;;;;;5029935;28;20383;-68
2022/04/10 00:31:47;;;;;;;0.40;0.20;;;3.50;99.90;;;;;;5030731;28;20411;-68
2022/04/10 00:34:13;;;;;;;0.40;0.20;;;3.50;99.90;;;;;;5030219;28;20449;-68
2022/04/10 00:36:38;;;;;;;0.40;0.20;;;3.50;99.90;;;;;;5030303;28;20914;-68
2022/04/10 00:39:04;;;;;;;0.40;0.20;;;3.50;99.90;;;;;;5030396;28;20439;-68
2022/04/10 00:41:30;;;;;;;0.40;0.20;;;3.60;99.90;;;;;;5030228;28;20395;-68
2022/04/10 00:44:10;;;;;;;0.40;0.30;;;3.50;99.90;;;;;;5030175;28;20402;-68
2022/04/10 00:46:37;;;;;;;0.40;0.20;;;3.50;99.90;;;;;;5029915;28;20391;-68
2022/04/10 00:49:04;;;;;;;0.40;0.20;;;3.50;99.90;;;;;;5030633;28;20379;-68
2022/04/10 00:51:40;;;;;;;0.40;0.28;;;3.40;99.90;;;;;;5029786;28;20444;-68
2022/04/10 00:54:14;;;;;;;0.40;0.20;;;3.30;99.90;;;;;;5031777;28;20885;-68
2022/04/10 00:56:40;;;;;;;0.40;0.20;;;3.30;99.90;;;;;;5033613;28;20882;-68
2022/04/10 00:59:07;;;;;;;0.40;0.20;;;3.20;99.90;;;;;;5034415;28;20375;-68
2022/04/10 01:01:36;;;;;;;0.40;0.20;;;3.30;99.90;;;;;;5032440;28;20440;-68
2022/04/10 01:04:03;;;;;;;0.90;0.90;;;3.10;99.90;;;;;;5034443;28;20388;-68
2022/04/10 01:06:30;;;;;;;0.40;0.20;;;3.10;99.90;;;;;;5034375;28;20375;-69
2022/04/10 01:08:57;;;;;;;0.40;0.20;;;3.10;99.90;;;;;;5033309;28;20391;-69
2022/04/10 01:11:22;;;;;;;0.40;0.20;;;3.10;99.90;;;;;;5015660;28;20384;-69
2022/04/10 01:13:48;;;;;;;0.40;0.20;;;3.10;99.90;;;;;;5013575;28;20734;-68
2022/04/10 01:16:14;;;;;;;0.40;0.20;;;3.00;99.90;;;;;;5013219;28;20438;-69
2022/04/10 01:18:41;;;;;;;0.40;0.20;;;3.10;99.90;;;;;;5014149;28;20401;-69
2022/04/10 01:21:07;;;;;;;0.40;0.20;;;3.00;99.90;;;;;;5012695;28;20385;-69
2022/04/10 01:23:34;;;;;;;0.40;0.20;;;2.90;99.90;;;;;;5014626;28;20395;-68
2022/04/10 01:25:59;;;;;;;0.40;0.20;;;2.90;99.90;;;;;;5013446;28;20403;-68
2022/04/10 01:28:25;;;;;;;0.40;0.20;;;2.80;99.90;;;;;;5014215;28;20384;-69
2022/04/10 01:30:52;;;;;;;0.40;0.20;;;2.70;99.90;;;;;;5014372;28;20865;-69
2022/04/10 01:33:18;;;;;;;0.40;0.20;;;2.80;99.90;;;;;;5012932;28;20912;-68
2022/04/10 01:35:44;;;;;;;0.40;0.40;;;2.80;99.90;;;;;;5014750;28;20467;-68
2022/04/10 01:38:11;;;;;;;0.40;0.20;;;2.70;99.90;;;;;;5013191;28;20404;-69
2022/04/10 01:40:37;;;;;;;0.40;0.20;;;2.80;99.90;;;;;;5012853;28;20404;-68
2022/04/10 01:43:02;;;;;;;0.90;0.90;;;2.80;99.90;;;;;;5012559;28;20441;-68
2022/04/10 01:45:28;;;;;;;0.40;0.20;;;2.70;99.90;;;;;;5013672;28;20409;-68
2022/04/10 01:47:54;;;;;;;0.40;0.20;;;2.70;99.90;;;;;;5014007;28;20383;-68
2022/04/10 01:50:20;;;;;;;0.40;0.20;;;2.60;99.90;;;;;;5013365;28;20780;-68
2022/04/10 01:52:46;;;;;;;0.40;0.20;;;2.70;99.90;;;;;;5013607;28;20448;-68
2022/04/10 01:55:12;;;;;;;0.40;0.20;;;2.60;99.90;;;;;;5013695;28;20428;-68
2022/04/10 01:57:37;;;;;;;0.40;0.20;;;2.50;99.90;;;;;;5012970;28;20990;-68
2022/04/10 02:00:05;;;;;;;0.40;0.20;;;2.60;99.90;;;;;;5013567;28;20381;-68
2022/04/10 02:02:31;;;;;;;0.40;0.20;;;2.40;99.90;;;;;;5012836;28;20389;-68
2022/04/10 02:04:56;;;;;;;0.40;0.20;;;2.50;99.90;;;;;;5012682;28;20393;-68
2022/04/10 02:07:22;;;;;;;0.40;0.20;;;2.50;99.90;;;;;;5013196;28;20762;-68
2022/04/10 02:09:48;;;;;;;0.40;0.30;;;2.50;99.90;;;;;;5018112;28;20433;-68
2022/04/10 02:12:14;;;;;;;0.40;0.40;;;2.40;99.90;;;;;;5048481;28;20903;-68
2022/04/10 02:14:39;;;;;;;0.40;0.30;;;2.40;99.90;;;;;;5032100;28;20391;-69
2022/04/10 02:17:05;;;;;;;0.40;0.20;;;2.30;99.90;;;;;;5033241;28;20461;-68
2022/04/10 02:19:31;;;;;;;0.40;0.20;;;2.30;99.90;;;;;;5032787;28;20419;-69
2022/04/10 02:21:59;;;;;;;0.40;0.30;;;2.30;99.90;;;;;;5032544;28;20387;-69
2022/04/10 02:24:25;;;;;;;0.40;0.20;;;2.20;99.90;;;;;;5032556;28;20852;-69
2022/04/10 02:26:51;;;;;;;0.40;0.20;;;2.20;99.90;;;;;;5032108;28;20383;-68
2022/04/10 02:29:16;;;;;;;0.40;0.20;;;2.20;99.90;;;;;;5032787;28;20371;-68
2022/04/10 02:31:42;;;;;;;0.40;0.20;;;2.30;99.90;;;;;;5032345;28;20429;-68
2022/04/10 02:34:08;;;;;;;0.40;0.20;;;2.20;99.90;;;;;;5031881;28;20380;-69
2022/04/10 02:36:34;;;;;;;0.50;0.50;;;2.10;99.90;;;;;;5032550;28;20395;-68
2022/04/10 02:38:59;;;;;;;0.40;0.30;;;2.20;99.90;;;;;;5031828;28;20748;-69
2022/04/10 02:41:25;;;;;;;0.40;0.20;;;2.10;99.90;;;;;;5032963;28;20389;-69
2022/04/10 02:43:51;;;;;;;0.40;0.20;;;2.10;99.90;;;;;;5032365;28;20935;-69
2022/04/10 02:46:16;;;;;;;0.40;0.20;;;2.10;99.90;;;;;;5031497;28;20440;-69
2022/04/10 02:48:42;;;;;;;0.40;0.20;;;2.10;99.90;;;;;;5032168;28;20387;-69
2022/04/10 02:51:08;;;;;;;0.40;0.20;;;2.00;99.90;;;;;;5031742;28;20462;-69
2022/04/10 02:53:33;;;;;;;0.40;0.20;;;2.00;99.90;;;;;;5032011;28;20419;-68
2022/04/10 02:55:59;;;;;;;0.40;0.20;;;2.00;99.90;;;;;;5032533;28;20440;-68
2022/04/10 02:58:26;;;;;;;0.40;0.30;;;2.00;99.90;;;;;;5031633;28;20371;-68
2022/04/10 03:00:51;;;;;;;0.40;0.20;;;2.00;99.90;;;;;;5032244;28;20399;-68
2022/04/10 03:03:17;;;;;;;0.40;0.20;;;2.00;99.90;;;;;;5046706;28;20391;-69
2022/04/10 03:05:43;;;;;;;0.40;0.20;;;2.10;99.90;;;;;;5031998;28;20394;-68
2022/04/10 03:08:09;;;;;;;0.40;0.20;;;2.00;99.90;;;;;;5031643;28;20395;-68
2022/04/10 03:10:34;;;;;;;0.40;0.30;;;1.90;99.90;;;;;;5018782;28;20605;-69
2022/04/10 03:13:00;;;;;;;0.40;0.40;;;1.90;99.90;;;;;;5012189;28;20484;-68
2022/04/10 03:15:26;;;;;;;0.40;0.20;;;1.90;99.90;;;;;;5011070;28;20719;-69
2022/04/10 03:17:51;;;;;;;0.40;0.20;;;1.90;99.90;;;;;;5011715;28;20397;-68
2022/04/10 03:20:17;;;;;;;0.40;0.20;;;1.90;99.90;;;;;;5012365;28;20479;-68
2022/04/10 03:22:42;;;;;;;0.40;0.20;;;1.80;99.90;;;;;;5011214;28;20483;-69
2022/04/10 03:25:08;;;;;;;0.40;0.30;;;1.90;99.90;;;;;;5012112;28;20420;-69
2022/04/10 03:27:34;;;;;;;0.40;0.20;;;1.90;99.90;;;;;;5011295;28;20421;-69
2022/04/10 03:30:00;;;;;;;0.40;0.20;;;1.80;99.90;;;;;;5011512;28;20401;-68
2022/04/10 03:32:25;;;;;;;0.40;0.20;;;1.90;99.90;;;;;;5011475;28;20420;-68
2022/04/10 03:34:51;;;;;;;0.40;0.20;;;1.90;99.90;;;;;;5011061;28;20462;-68
2022/04/10 03:37:17;;;;;;;0.40;0.20;;;1.80;99.90;;;;;;5011680;28;20405;-69
2022/04/10 03:39:42;;;;;;;0.40;0.20;;;1.70;99.90;;;;;;5011001;28;20404;-70
2022/04/10 03:42:08;;;;;;;0.40;0.20;;;1.80;99.90;;;;;;5011845;28;20431;-68
2022/04/10 03:44:34;;;;;;;0.40;0.20;;;1.80;99.90;;;;;;5011822;28;20418;-69
2022/04/10 03:46:59;;;;;;;0.40;0.20;;;1.80;99.90;;;;;;5010653;28;20440;-69
2022/04/10 03:49:25;;;;;;;0.40;0.28;;;1.70;99.90;;;;;;5011567;28;20416;-68
2022/04/10 03:51:51;;;;;;;0.40;0.20;;;1.70;99.90;;;;;;5011308;28;20417;-69
2022/04/10 03:54:16;;;;;;;0.40;0.20;;;1.70;99.90;;;;;;5011224;28;20419;-69
2022/04/10 03:56:42;;;;;;;0.40;0.20;;;1.60;99.90;;;;;;5011224;28;20385;-68
2022/04/10 03:59:08;;;;;;;0.40;0.20;;;2.20;99.90;;;;;;5010755;28;20392;-69
2022/04/10 04:01:34;;;;;;;0.40;0.20;;;1.70;99.90;;;;;;5011689;28;20393;-69
2022/04/10 04:03:59;;;;;;;0.40;0.20;;;1.60;99.90;;;;;;5011026;28;20408;-69
2022/04/10 04:06:25;;;;;;;0.40;0.25;;;1.60;99.90;;;;;;5010690;28;20392;-68
2022/04/10 04:08:51;;;;;;;0.40;0.20;;;1.50;99.90;;;;;;5011345;28;20881;-69
2022/04/10 04:11:16;;;;;;;0.40;0.20;;;1.50;99.90;;;;;;5028584;28;20380;-69
2022/04/10 04:13:42;;;;;;;0.40;0.30;;;1.50;99.90;;;;;;5031350;28;20417;-69
2022/04/10 04:16:08;;;;;;;0.40;0.20;;;1.60;99.90;;;;;;5030984;28;20419;-68
2022/04/10 04:18:35;;;;;;;0.40;0.20;;;1.40;99.90;;;;;;5030509;28;20383;-69
2022/04/10 04:21:01;;;;;;;0.40;0.20;;;1.40;99.90;;;;;;5031029;28;20383;-69
2022/04/10 04:23:27;;;;;;;0.40;0.20;;;1.40;99.90;;;;;;5029977;28;20402;-69
2022/04/10 04:25:53;;;;;;;0.40;0.20;;;1.40;99.90;;;;;;5030617;28;20383;-69
2022/04/10 04:28:19;;;;;;;0.40;0.20;;;1.40;99.90;;;;;;5030460;28;20401;-69
2022/04/10 04:30:45;;;;;;;0.40;0.20;;;1.40;99.90;;;;;;5030415;28;20395;-68
2022/04/10 04:33:10;;;;;;;0.40;0.20;;;1.40;99.90;;;;;;5030883;28;20752;-69
2022/04/10 04:35:36;;;;;;;0.40;0.20;;;1.40;99.90;;;;;;5029446;28;20403;-69
2022/04/10 04:38:02;;;;;;;0.40;0.20;;;1.40;99.90;;;;;;5030577;28;20406;-69
2022/04/10 04:40:28;;;;;;;0.40;0.20;;;1.40;99.90;;;;;;5030173;28;20437;-68
2022/04/10 04:42:54;;;;;;;0.40;0.20;;;1.30;99.90;;;;;;5030229;28;20395;-69
2022/04/10 04:45:19;;;;;;;0.40;0.20;;;1.40;99.90;;;;;;5046048;28;20410;-68
2022/04/10 04:47:45;;;;;;;0.40;0.20;;;1.40;99.90;;;;;;5030105;28;20378;-68
2022/04/10 04:50:11;;;;;;;0.40;0.20;;;1.50;99.90;;;;;;5030992;28;20406;-68
2022/04/10 04:52:37;;;;;;;0.40;0.20;;;1.40;99.90;;;;;;5030379;28;20498;-68
2022/04/10 04:55:03;;;;;;;0.40;0.20;;;1.40;99.90;;;;;;5030526;28;20458;-69
2022/04/10 04:57:28;;;;;;;0.70;0.70;;;1.50;99.90;;;;;;5029848;28;20403;-68
2022/04/10 04:59:54;;;;;;;0.40;0.20;;;1.50;99.90;;;;;;5029211;28;20419;-68
2022/04/10 05:02:20;;;;;;;0.40;0.20;;;1.50;99.90;;;;;;5030652;28;20387;-68
2022/04/10 05:04:45;;;;;;;0.40;0.20;;;1.50;99.90;;;;;;5030186;28;20392;-68
2022/04/10 05:07:11;;;;;;;0.40;0.20;;;1.50;99.90;;;;;;5029491;28;20470;-69
2022/04/10 05:09:37;;;;;;;0.40;0.20;;;1.50;99.90;;;;;;5026462;28;20396;-69
2022/04/10 05:12:02;;;;;;;0.40;0.20;;;1.60;99.90;;;;;;5009542;28;20416;-69
2022/04/10 05:14:28;;;;;;;0.40;0.20;;;1.80;99.90;;;;;;5010867;28;20459;-68
2022/04/10 05:16:54;;;;;;;0.40;0.20;;;1.60;99.90;;;;;;5010312;28;20432;-68
2022/04/10 05:19:21;;;;;;;0.40;0.20;;;1.60;99.90;;;;;;5009866;28;20408;-68
2022/04/10 05:21:47;;;;;;;0.40;0.30;;;1.60;99.90;;;;;;5010700;28;20483;-69
2022/04/10 05:24:12;;;;;;;0.40;0.20;;;1.70;99.90;;;;;;5008924;28;20476;-69
2022/04/10 05:26:38;;;;;;;0.40;0.20;;;1.70;99.90;;;;;;5010774;28;20456;-68
2022/04/10 05:29:04;;;;;;;0.40;0.30;;;1.70;99.90;;;;;;5009986;28;20865;-68
2022/04/10 05:31:30;;;;;;;0.40;0.20;;;1.80;99.90;;;;;;5009883;28;20485;-68
2022/04/10 05:33:55;;;;;;;0.40;0.20;;;1.80;99.90;;;;;;5010688;28;20385;-68
2022/04/10 05:36:21;;;;;;;0.40;0.40;;;1.90;99.90;;;;;;5009481;28;20386;-69
2022/04/10 05:38:47;;;;;;;0.40;0.20;;;1.80;99.90;;;;;;5010371;28;20409;-68
2022/04/10 05:41:13;;;;;;;0.40;0.20;;;1.60;99.90;;;;;;5012951;28;20483;-69
2022/04/10 05:43:39;;;;;;;0.40;0.20;;;1.70;99.90;;;;;;5011971;28;20861;-68
2022/04/10 05:46:04;;;;;;;1.00;1.00;;;1.70;99.90;;;;;;5013843;28;20402;-68
2022/04/10 05:48:31;;;;;;;0.40;0.20;;;1.70;99.90;;;;;;5013133;28;20381;-69
2022/04/10 05:50:57;;;;;;;0.40;0.20;;;1.70;99.90;;;;;;5013836;28;20392;-69
2022/04/10 05:53:24;;;;;;;0.40;0.20;;;1.80;99.90;;;;;;5013768;28;20400;-68
2022/04/10 05:55:50;;;;;;;0.40;0.20;;;1.80;99.90;;;;;;5013004;28;20723;-68
2022/04/10 05:58:15;;;;;;;0.40;0.20;;;2.00;99.90;;;;;;5013737;28;20393;-68
2022/04/10 06:00:41;;;;;;;0.40;0.20;;;2.10;99.90;;;;;;5012997;28;20385;-68
2022/04/10 06:03:07;;;;;;;0.40;0.20;;;2.20;99.90;;;;;;5013225;28;20401;-69
2022/04/10 06:05:32;;;;;;;0.40;0.30;;;2.10;99.90;;;;;;5013543;28;20896;-68
2022/04/10 06:08:00;;;;;;;0.40;0.37;;;2.10;99.90;;;;;;5012677;28;20403;-68
2022/04/10 06:10:26;;;;;;;0.40;0.20;;;2.20;99.90;;;;;;5024042;28;20818;-68
2022/04/10 06:12:52;;;;;;;0.40;0.20;;;2.30;99.90;;;;;;5030943;28;20407;-68
2022/04/10 06:15:21;;;;;;;0.40;0.20;;;2.40;99.90;;;;;;5032993;28;20417;-68
2022/04/10 06:17:47;;;;;;;0.60;0.60;;;2.50;99.90;;;;;;5033119;28;20858;-68
2022/04/10 06:20:13;;;;;;;0.40;0.30;;;2.60;99.90;;;;;;5032113;28;20377;-68
2022/04/10 06:22:39;;;;;;;0.40;0.20;;;2.80;99.90;;;;;;5024874;28;20757;-68
2022/04/10 06:25:05;;;;;;;0.40;0.20;;;2.70;99.90;;;;;;5012486;28;20392;-68
2022/04/10 06:27:31;;;;;;;0.90;0.90;;;2.90;99.90;;;;;;5013059;28;20412;-68
2022/04/10 06:29:56;;;;;;;0.40;0.20;;;2.90;99.90;;;;;;5013508;28;20384;-68
2022/04/10 06:32:22;;;;;;;0.40;0.20;;;3.10;99.90;;;;;;5012215;28;20443;-68
2022/04/10 06:34:47;;;;;;;0.40;0.20;;;3.10;99.90;;;;;;5013454;28;20393;-68
2022/04/10 06:37:14;;;;;;;0.40;0.20;;;3.10;99.90;;;;;;5011834;28;20440;-68
2022/04/10 06:39:40;;;;;;;0.40;0.20;;;3.20;99.90;;;;;;5012814;28;20858;-68
2022/04/10 06:42:07;;;;;;;0.40;0.20;;;3.40;99.90;;;;;;5012899;28;20411;-68
2022/04/10 06:44:33;;;;;;;0.40;0.20;;;3.40;99.90;;;;;;5011950;28;20384;-68
2022/04/10 06:46:58;;;;;;;0.40;0.20;;;3.60;99.90;;;;;;5012578;28;20388;-68
2022/04/10 06:49:24;;;;;;;0.40;0.20;;;3.60;99.90;;;;;;5011772;28;20845;-68
2022/04/10 06:51:50;;;;;;;0.40;0.20;;;3.80;99.90;;;;;;5011749;28;20444;-68
2022/04/10 06:54:15;;;;;;;0.40;0.20;;;3.90;99.90;;;;;;5012708;28;20392;-68
2022/04/10 06:56:41;;;;;;;0.40;0.20;;;4.00;99.90;;;;;;5011151;28;20365;-68
2022/04/10 06:59:07;;;;;;;0.40;0.20;;;4.00;99.90;;;;;;5012699;28;20822;-68
2022/04/10 07:01:33;;;;;;;1.70;0.70;;;4.10;99.90;;;;;;5011459;28;20385;-68
2022/04/10 07:04:00;;;;;;;0.40;0.20;;;4.20;99.90;;;;;;5012511;28;20391;-68
2022/04/10 07:06:25;;;;;;;0.45;0.30;;;4.30;99.90;;;;;;5010913;28;20385;-68
2022/04/10 07:08:51;;;;;;;0.40;0.30;;;4.40;99.90;;;;;;5011735;28;21265;-68
2022/04/10 07:11:17;;;;;;;0.50;0.50;;;4.50;99.90;;;;;;5008610;28;20869;-68
2022/04/10 07:13:42;;;;;;;0.40;0.20;;;4.60;99.90;;;;;;5010880;28;20417;-68
2022/04/10 07:16:09;;;;;;;0.40;0.20;;;4.70;99.90;;;;;;5011623;28;20389;-68
2022/04/10 07:18:35;;;;;;;0.70;0.70;;;4.80;99.90;;;;;;4995906;28;20418;-68
2022/04/10 07:21:01;;;;;;;0.40;0.20;;;4.90;99.90;;;;;;5003620;28;20750;-68
2022/04/10 07:23:42;;;;;;;0.40;0.20;;;4.90;99.90;;;;;;5013651;28;20387;-68
2022/04/10 07:26:12;;;;;;;0.40;0.20;;;5.00;99.90;;;;;;5013922;28;20877;-68
2022/04/10 07:28:38;;;;;;;0.40;0.20;;;5.20;99.90;;;;;;5012049;28;20897;-69
2022/04/10 07:31:08;;;;;;;0.40;0.20;;;5.30;99.90;;;;;;5011578;28;21023;-69
2022/04/10 07:33:34;;;;;;;0.40;0.20;;;5.40;99.90;;;;;;5011890;28;20405;-68
2022/04/10 07:36:00;;;;;;;0.40;0.20;;;5.50;99.90;;;;;;5011058;28;20388;-69
2022/04/10 07:38:26;;;;;;;0.40;0.20;;;5.60;99.90;;;;;;5011592;28;20826;-69
2022/04/10 07:40:52;;;;;;;0.40;0.40;;;5.60;99.90;;;;;;5011053;28;20385;-69
2022/04/10 07:43:17;;;;;;;0.40;0.20;;;5.60;99.90;;;;;;5010801;28;20866;-69
2022/04/10 07:48:28;;;;;;;0.40;0.40;;;5.80;99.90;;;;;;5011426;28;20447;-69
2022/04/10 07:50:55;;;;;;;0.40;0.30;;;5.90;99.90;;;;;;5011333;28;20413;-69
2022/04/10 07:53:21;;;;;;;0.40;0.20;;;6.10;99.90;;;;;;5010339;28;20405;-69
2022/04/10 07:55:47;;;;;;;0.40;0.20;;;6.10;99.90;;;;;;5010737;28;20419;-69
2022/04/10 07:58:12;;;;;;;0.40;0.20;;;6.10;99.90;;;;;;5010473;28;20385;-69
2022/04/10 08:00:38;;;;;;;0.40;0.20;;;6.30;99.90;;;;;;5003796;28;20813;-69
2022/04/10 08:03:04;;;;;;;0.40;0.20;;;6.40;99.90;;;;;;4999218;28;20397;-70
2022/04/10 08:05:30;;;;;;;0.40;0.20;;;6.40;99.90;;;;;;5004991;28;20396;-69
2022/04/10 08:07:58;;;;;;;0.40;0.30;;;6.50;99.90;;;;;;5003665;28;20401;-69
2022/04/10 08:10:24;;;;;;;0.40;0.20;;;6.60;99.90;;;;;;5013077;28;20400;-69
2022/04/10 08:12:50;;;;;;;0.40;0.20;;;6.60;99.90;;;;;;5011202;28;20432;-68
2022/04/10 08:15:16;;;;;;;0.40;0.20;;;6.70;99.90;;;;;;5010157;28;20799;-70
2022/04/10 08:17:41;;;;;;;0.40;0.20;;;6.70;99.90;;;;;;5010503;28;20393;-69
2022/04/10 08:20:08;;;;;;;0.47;0.45;;;6.80;99.90;;;;;;5010724;28;20377;-69
2022/04/10 08:22:36;;;;;;;0.40;0.20;;;6.70;99.90;;;;;;5010257;28;20730;-69
2022/04/10 08:25:07;;;;;;;0.40;0.20;;;6.80;99.90;;;;;;5011238;28;20431;-69
2022/04/10 08:27:33;;;;;;;0.40;0.30;;;6.80;99.90;;;;;;5009920;28;20922;-69
2022/04/10 08:29:59;;;;;;;0.40;0.40;;;6.90;99.90;;;;;;5011124;28;20389;-70
2022/04/10 08:32:25;;;;;;;0.40;0.20;;;7.20;99.90;;;;;;5010401;28;20462;-71
2022/04/10 08:34:52;;;;;;;0.40;0.20;;;7.30;99.90;;;;;;5008517;28;20397;-70
2022/04/10 08:37:18;;;;;;;0.50;0.40;;;7.50;97.80;;;;;;4996686;28;20418;-69
2022/04/10 08:39:43;;;;;;;0.40;0.30;;;7.40;95.50;;;;;;4995534;28;20747;-69
2022/04/10 08:42:09;;;;;;;0.40;0.20;;;7.30;96.50;;;;;;5004115;28;20392;-69
2022/04/10 08:44:36;;;;;;;0.40;0.20;;;7.50;97.40;;;;;;5009271;28;20499;-69
2022/04/10 08:47:02;;;;;;;0.40;0.20;;;7.70;95.60;;;;;;5010487;28;20843;-69
2022/04/10 08:49:29;;;;;;;0.40;0.20;;;7.80;94.60;;;;;;4995364;28;20471;-69
2022/04/10 08:51:56;;;;;;;0.40;0.20;;;7.90;95.50;;;;;;5007771;28;20427;-69
2022/04/10 08:54:23;;;;;;;0.73;0.73;;;7.80;94.70;;;;;;5010496;28;20400;-69
2022/04/10 08:56:50;;;;;;;0.40;0.20;;;7.90;92.30;;;;;;5010321;28;20769;-68
2022/04/10 08:59:18;;;;;;;0.40;0.20;;;7.90;91.30;;;;;;5007632;28;20487;-69
2022/04/10 09:01:43;;;;;;;0.40;0.20;;;8.00;91.70;;;;;;5008424;28;20416;-69
2022/04/10 09:04:09;;;;;;;0.40;0.20;;;7.80;93.00;;;;;;5010277;28;20886;-69
2022/04/10 09:06:59;;;;;;;0.40;0.20;;;7.90;93.40;;;;;;5005455;28;20417;-70
2022/04/10 09:09:25;;;;;;;0.40;0.20;;;8.10;93.20;;;;;;5012206;28;20467;-70
2022/04/10 09:11:54;;;;;;;0.40;0.20;;;8.20;94.10;;;;;;5019857;28;20377;-70
2022/04/10 09:14:21;;;;;;;0.40;0.20;;;8.20;92.30;;;;;;5010851;28;20483;-70
2022/04/10 09:17:13;;;;;;;0.40;0.20;;;8.30;92.80;;;;;;5013896;28;20891;-71
2022/04/10 09:19:43;;;;;;;0.40;0.20;;;8.20;92.40;;;;;;5029419;28;20400;-70
2022/04/10 09:22:25;;;;;;;0.40;0.20;;;8.10;92.50;;;;;;5013690;28;20790;-70
2022/04/10 09:25:07;;;;;;;0.40;0.30;;;8.20;92.50;;;;;;5013298;28;20476;-70
2022/04/10 09:27:54;;;;;;;0.60;0.50;;;8.20;89.10;;;;;;5014423;28;20439;-70
2022/04/10 09:30:20;;;;;;;0.40;0.20;;;8.00;88.50;;;;;;5011843;28;20420;-70
2022/04/10 09:32:51;;;;;;;0.40;0.30;;;8.30;82.40;;;;;;5014069;28;20531;-70
2022/04/10 09:35:21;;;;;;;0.40;0.20;;;8.40;77.50;;;;;;5013407;28;20475;-69
2022/04/10 09:37:53;;;;;;;0.40;0.20;;;8.80;74.60;;;;;;5014075;28;20408;-69
2022/04/10 09:40:39;;;;;;;0.40;0.20;;;8.90;71.20;;;;;;5013173;28;20389;-69
2022/04/10 09:43:07;;;;;;;0.40;0.22;;;9.10;68.30;;;;;;5013381;28;20908;-70
2022/04/10 09:45:40;;;;;;;0.40;0.20;;;8.90;69.10;;;;;;5013917;28;20788;-70
2022/04/10 09:48:20;;;;;;;0.40;0.20;;;9.00;71.30;;;;;;5013414;28;20409;-70
2022/04/10 09:50:52;;;;;;;0.40;0.20;;;9.00;70.70;;;;;;5013926;28;20393;-70
2022/04/10 09:53:18;;;;;;;0.40;0.20;;;9.20;78.00;;;;;;5012954;28;20409;-70
2022/04/10 09:55:50;;;;;;;0.40;0.20;;;9.10;75.50;;;;;;5013485;28;20385;-70
2022/04/10 09:58:16;;;;;;;0.40;0.30;;;9.30;81.40;;;;;;5013075;28;20435;-70
2022/04/10 10:00:46;;;;;;;0.40;0.30;;;9.40;79.70;;;;;;5013468;28;20385;-69
2022/04/10 10:03:13;;;;;;;0.40;0.20;;;9.40;75.60;;;;;;5013394;28;20391;-69
2022/04/10 10:05:40;;;;;;;0.40;0.20;;;9.40;76.10;;;;;;5012736;28;20385;-69
2022/04/10 10:08:07;;;;;;;0.40;0.20;;;9.20;74.90;;;;;;5013377;28;20897;-69
2022/04/10 10:10:35;;;;;;;0.40;0.20;;;9.30;74.50;;;;;;5023970;28;20898;-70
2022/04/10 10:13:06;;;;;;;0.60;0.60;;;9.50;73.90;;;;;;5033208;28;20411;-69
2022/04/10 10:15:35;;;;;;;0.40;0.30;;;9.60;68.70;;;;;;5047209;28;20400;-70
2022/04/10 10:18:03;;;;;;;0.40;0.20;;;9.60;67.30;;;;;;5033171;28;20380;-70
2022/04/10 10:20:30;;;;;;;0.40;0.20;;;9.60;67.80;;;;;;5032245;28;20383;-71
2022/04/10 10:23:07;;;;;;;0.40;0.20;;;9.90;67.20;;;;;;5032772;28;20466;-70
2022/04/10 10:25:40;;;;;;;0.40;0.20;;;10.00;63.70;;;;;;5031947;28;20462;-70
2022/04/10 10:28:24;;;;;;;0.40;0.20;;;9.80;63.50;;;;;;5032953;28;20391;-69
2022/04/10 10:31:14;;;;;;;0.40;0.30;;;9.70;67.90;;;;;;5031878;28;20386;-70
2022/04/10 10:33:48;;;;;;;0.40;0.30;;;9.70;72.70;;;;;;5032021;28;20415;-70
2022/04/10 10:36:26;;;;;;;0.40;0.20;;;10.10;72.70;;;;;;5032660;28;20520;-70
2022/04/10 10:38:56;;;;;;;0.40;0.20;;;10.10;69.50;;;;;;5030212;28;20494;-69
2022/04/10 10:41:22;;;;;;;0.40;0.20;;;10.00;74.40;;;;;;5032614;28;20379;-70
2022/04/10 10:43:48;;;;;;;0.90;0.50;;;10.20;69.30;;;;;;5031699;28;20475;-70
2022/04/10 10:46:32;;;;;;;0.40;0.20;;;9.90;68.60;;;;;;5032346;28;20445;-70
2022/04/10 10:49:18;;;;;;;0.40;0.20;;;9.60;72.10;;;;;;5012065;28;20392;-70
2022/04/10 10:51:48;;;;;;;0.40;0.20;;;9.90;70.60;;;;;;5012034;28;20436;-70
2022/04/10 10:54:35;;;;;;;0.40;0.20;;;9.70;64.40;;;;;;5012549;28;20412;-70
2022/04/10 10:57:25;;;;;;;0.40;0.20;;;10.00;66.00;;;;;;5010684;28;20792;-70
2022/04/10 11:00:06;;;;;;;0.40;0.20;;;10.20;69.10;;;;;;5011774;28;20396;-69
2022/04/10 11:02:36;;;;;;;0.40;0.20;;;10.20;63.60;;;;;;5012663;28;20393;-70
2022/04/10 11:05:33;;;;;;;0.40;0.20;;;10.40;60.00;;;;;;5011506;28;20707;-69
2022/04/10 11:08:04;;;;;;;0.40;0.20;;;10.60;56.60;;;;;;5011629;28;20870;-70
2022/04/10 11:10:31;;;;;;;0.40;0.20;;;10.90;58.10;;;;;;5023802;28;20391;-70
2022/04/10 11:13:01;;;;;;;0.40;0.20;;;11.70;62.20;;;;;;5031466;28;20469;-70
2022/04/10 11:15:32;;;;;;;0.40;0.20;;;11.80;58.70;;;;;;5032069;28;20423;-70
2022/04/10 11:18:34;;;;;;;0.40;0.25;;;11.90;56.40;;;;;;5031756;28;20391;-70
2022/04/10 11:21:16;;;;;;;0.40;0.30;;;11.90;57.40;;;;;;5031148;28;20399;-71
2022/04/10 11:23:45;;;;;;;0.40;0.20;;;12.30;52.70;;;;;;5031728;28;20375;-69
2022/04/10 11:26:15;;;;;;;0.40;0.20;;;12.10;51.50;;;;;;5030862;28;20383;-70
2022/04/10 11:29:01;;;;;;;0.40;0.20;;;12.40;49.10;;;;;;5030543;28;20399;-69
2022/04/10 11:31:40;;;;;;;0.40;0.20;;;13.10;49.10;;;;;;5030721;28;20832;-68
2022/04/10 11:34:22;;;;;;;0.40;0.20;;;12.90;46.80;;;;;;5031810;28;20395;-70
2022/04/10 11:36:50;;;;;;;0.40;0.20;;;12.80;48.40;;;;;;5030984;28;20892;-68
2022/04/10 11:39:16;;;;;;;0.40;0.20;;;12.30;44.80;;;;;;5029915;28;20407;-69
2022/04/10 11:41:43;;;;;;;0.40;0.20;;;12.70;46.50;;;;;;5031229;28;20902;-69
2022/04/10 11:44:09;;;;;;;0.40;0.20;;;12.90;45.20;;;;;;5031466;28;20383;-68
2022/04/10 11:46:35;;;;;;;0.40;0.20;;;12.30;43.00;;;;;;5030605;28;20383;-69
2022/04/10 11:49:02;;;;;;;0.40;0.20;;;12.40;46.10;;;;;;5031446;28;20398;-69
2022/04/10 11:51:28;;;;;;;0.40;0.20;;;12.20;43.70;;;;;;5030581;28;20450;-69
2022/04/10 11:53:55;;;;;;;0.40;0.28;;;12.70;43.50;;;;;;5031486;28;20490;-69
2022/04/10 11:56:21;;;;;;;0.40;0.30;;;12.50;46.80;;;;;;5031050;28;20379;-69
2022/04/10 11:58:47;;;;;;;0.40;0.20;;;12.80;44.50;;;;;;5030716;28;20868;-69
2022/04/10 12:01:14;;;;;;;0.40;0.20;;;14.00;45.00;;;;;;5031161;28;20747;-68
2022/04/10 12:03:41;;;;;;;0.40;0.20;;;14.70;43.30;;;;;;5030394;28;20379;-69
2022/04/10 12:06:09;;;;;;;0.40;0.20;;;15.00;45.30;;;;;;5031076;28;20379;-69
2022/04/10 12:08:35;;;;;;;0.40;0.20;;;14.80;42.10;;;;;;5030578;28;20426;-68
2022/04/10 12:11:02;;;;;;;0.40;0.30;;;14.10;39.30;;;;;;5015518;28;20452;-68
2022/04/10 12:13:30;;;;;;;0.40;0.20;;;14.20;40.40;;;;;;5011246;28;20401;-69
2022/04/10 12:16:08;;;;;;;0.40;0.20;;;14.80;39.40;;;;;;5010705;28;20424;-68
2022/04/10 12:18:49;;;;;;;0.40;0.20;;;14.30;37.50;;;;;;5010838;28;20376;-67
2022/04/10 12:21:16;;;;;;;0.40;0.20;;;14.20;36.20;;;;;;5011212;28;20994;-68
2022/04/10 12:23:42;;;;;;;0.40;0.30;;;13.50;40.20;;;;;;5010389;28;20454;-69
2022/04/10 12:26:08;;;;;;;0.40;0.20;;;14.90;38.40;;;;;;5011349;28;20393;-69
2022/04/10 12:28:35;;;;;;;0.40;0.30;;;14.50;38.60;;;;;;5010947;28;20400;-69
2022/04/10 12:31:02;;;;;;;0.40;0.20;;;12.70;37.00;;;;;;5010133;28;20384;-68
2022/04/10 12:33:29;;;;;;;0.40;0.30;;;14.50;37.30;;;;;;5011075;28;20487;-68
2022/04/10 12:35:55;;;;;;;0.40;0.30;;;14.90;39.60;;;;;;5010131;28;20777;-69
2022/04/10 12:38:26;;;;;;;0.40;0.30;;;16.00;39.50;;;;;;5010957;28;20416;-68
2022/04/10 12:41:03;;;;;;;0.40;0.30;;;15.60;34.20;;;;;;5010169;28;20392;-69
2022/04/10 12:43:29;;;;;;;0.40;0.20;;;15.50;35.50;;;;;;5006659;28;20825;-69
2022/04/10 12:46:11;;;;;;;0.40;0.30;;;14.90;35.60;;;;;;5009717;28;20388;-70
2022/04/10 12:48:37;;;;;;;0.40;0.30;;;14.70;37.70;;;;;;4991449;28;20878;-69
2022/04/10 12:51:10;;;;;;;0.40;0.20;;;15.20;39.60;;;;;;5001563;28;20385;-68
2022/04/10 12:53:37;;;;;;;0.40;0.28;;;15.30;35.40;;;;;;5014941;28;20416;-69
2022/04/10 12:56:17;;;;;;;0.40;0.20;;;15.00;36.10;;;;;;5010888;28;20903;-70
2022/04/10 12:58:45;;;;;;;0.40;0.20;;;14.40;36.40;;;;;;5007221;28;20404;-69
2022/04/10 13:01:31;;;;;;;0.40;0.20;;;13.20;37.50;;;;;;5008833;28;20468;-70